createdAt,value
2023-05-25T00:01:44.896Z,13.70
2023-05-25T00:04:17.440Z,13.70
2023-05-25T00:06:47.317Z,13.70
2023-05-25T00:09:14.561Z,13.60
2023-05-25T00:11:41.601Z,13.70
2023-05-25T00:14:08.764Z,13.60
2023-05-25T00:16:37.668Z,13.60
2023-05-25T00:19:15.736Z,13.60
2023-05-25T00:21:42.798Z,13.60
2023-05-25T00:24:09.857Z,13.60
2023-05-25T00:26:37.059Z,13.50
2023-05-25T00:29:04.825Z,13.50
2023-05-25T00:31:36.565Z,13.50
2023-05-25T00:34:03.800Z,13.50
2023-05-25T00:36:30.806Z,13.50
2023-05-25T00:38:57.915Z,13.40
2023-05-25T00:41:27.704Z,13.40
2023-05-25T00:43:54.760Z,13.40
2023-05-25T00:46:23.403Z,13.40
2023-05-25T00:48:54.636Z,13.40
2023-05-25T00:51:22.492Z,13.40
2023-05-25T00:53:49.523Z,13.30
2023-05-25T00:56:24.073Z,13.30
2023-05-25T00:58:56.949Z,13.30
2023-05-25T01:01:25.779Z,13.30
2023-05-25T01:03:55.434Z,13.30
2023-05-25T01:06:23.550Z,13.30
2023-05-25T01:09:00.752Z,13.30
2023-05-25T01:11:33.317Z,13.30
2023-05-25T01:14:01.554Z,13.20
2023-05-25T01:16:29.696Z,13.20
2023-05-25T01:18:56.962Z,13.20
2023-05-25T01:21:54.870Z,13.20
2023-05-25T01:24:46.477Z,13.20
2023-05-25T01:27:24.868Z,13.20
2023-05-25T01:29:53.465Z,13.10
2023-05-25T01:32:21.541Z,13.10
2023-05-25T01:34:50.336Z,13.10
2023-05-25T01:37:20.428Z,13.10
2023-05-25T01:39:47.481Z,13.10
2023-05-25T01:42:14.546Z,13.10
2023-05-25T01:44:41.893Z,13.00
2023-05-25T01:47:14.954Z,13.00
2023-05-25T01:50:00.053Z,13.00
2023-05-25T01:52:31.457Z,13.00
2023-05-25T01:55:13.255Z,13.00
2023-05-25T01:58:02.646Z,13.00
2023-05-25T02:00:31.856Z,13.00
2023-05-25T02:03:01.558Z,12.90
2023-05-25T02:05:28.790Z,12.90
2023-05-25T02:07:55.908Z,12.90
2023-05-25T02:10:23.348Z,12.90
2023-05-25T02:12:50.451Z,12.90
2023-05-25T02:15:18.999Z,12.90
2023-05-25T02:17:46.105Z,12.90
2023-05-25T02:20:13.851Z,12.90
2023-05-25T02:22:41.010Z,12.90
2023-05-25T02:25:09.153Z,12.90
2023-05-25T02:27:37.168Z,12.80
2023-05-25T02:30:04.948Z,12.80
2023-05-25T02:32:33.661Z,12.80
2023-05-25T02:35:01.009Z,12.80
2023-05-25T02:37:28.032Z,12.80
2023-05-25T02:39:55.226Z,12.80
2023-05-25T02:42:22.262Z,12.70
2023-05-25T02:44:49.412Z,12.70
2023-05-25T02:47:21.601Z,12.70
2023-05-25T02:49:48.776Z,12.70
2023-05-25T02:52:15.944Z,12.70
2023-05-25T02:54:42.990Z,12.70
2023-05-25T02:57:10.273Z,12.70
2023-05-25T02:59:37.351Z,12.70
2023-05-25T03:02:04.862Z,12.70
2023-05-25T03:04:34.042Z,12.70
2023-05-25T03:07:01.605Z,12.70
2023-05-25T03:09:29.402Z,12.60
2023-05-25T03:11:56.457Z,12.60
2023-05-25T03:14:23.501Z,12.60
2023-05-25T03:16:53.517Z,12.60
2023-05-25T03:19:21.438Z,12.60
2023-05-25T03:21:48.527Z,12.60
2023-05-25T03:24:15.698Z,12.60
2023-05-25T03:26:42.720Z,12.60
2023-05-25T03:29:10.217Z,12.60
2023-05-25T03:31:37.315Z,12.60
2023-05-25T03:34:04.697Z,12.60
2023-05-25T03:36:33.570Z,12.60
2023-05-25T03:39:01.105Z,12.60
2023-05-25T03:41:28.224Z,12.70
2023-05-25T03:43:55.261Z,12.70
2023-05-25T03:46:22.383Z,12.60
2023-05-25T03:48:49.412Z,12.70
2023-05-25T03:51:16.549Z,12.70
2023-05-25T03:53:43.612Z,12.70
2023-05-25T03:56:10.692Z,12.70
2023-05-25T03:58:37.835Z,12.70
2023-05-25T04:01:05.436Z,12.70
2023-05-25T04:03:34.077Z,12.70
2023-05-25T04:06:02.148Z,12.80
2023-05-25T04:08:29.467Z,12.80
2023-05-25T04:10:57.429Z,12.80
2023-05-25T04:13:24.538Z,12.80
2023-05-25T04:15:51.862Z,12.90
2023-05-25T04:18:19.288Z,12.90
2023-05-25T04:20:46.968Z,12.90
2023-05-25T04:23:14.008Z,12.90
2023-05-25T04:25:42.293Z,13.00
2023-05-25T04:28:10.313Z,13.00
2023-05-25T04:30:37.882Z,13.00
2023-05-25T04:33:05.062Z,13.00
2023-05-25T04:35:32.204Z,13.00
2023-05-25T04:38:02.701Z,13.10
2023-05-25T04:40:30.137Z,13.10
2023-05-25T04:42:57.238Z,13.10
2023-05-25T04:45:24.588Z,13.20
2023-05-25T04:47:51.746Z,13.20
2023-05-25T04:50:19.165Z,13.20
2023-05-25T04:52:46.197Z,13.20
2023-05-25T04:55:13.414Z,13.30
2023-05-25T04:57:40.437Z,13.30
2023-05-25T05:00:10.340Z,13.40
2023-05-25T05:02:37.409Z,13.40
2023-05-25T05:05:04.833Z,13.50
2023-05-25T05:07:32.691Z,13.50
2023-05-25T05:09:59.857Z,13.50
2023-05-25T05:12:26.880Z,13.60
2023-05-25T05:14:54.255Z,13.60
2023-05-25T05:17:21.416Z,13.70
2023-05-25T05:19:48.486Z,13.70
2023-05-25T05:22:16.117Z,13.70
2023-05-25T05:24:43.213Z,13.80
2023-05-25T05:27:10.731Z,13.80
2023-05-25T05:29:37.832Z,13.90
2023-05-25T05:32:05.187Z,14.00
2023-05-25T05:34:32.260Z,14.00
2023-05-25T05:37:02.155Z,14.10
2023-05-25T05:39:29.269Z,14.10
2023-05-25T05:41:57.089Z,14.10
2023-05-25T05:44:27.783Z,14.20
2023-05-25T05:47:00.842Z,14.30
2023-05-25T05:49:29.980Z,14.30
2023-05-25T05:51:57.474Z,14.40
2023-05-25T05:54:24.641Z,14.40
2023-05-25T05:56:52.007Z,14.50
2023-05-25T05:59:21.366Z,14.50
2023-05-25T06:01:48.640Z,14.50
2023-05-25T06:04:16.069Z,14.60
2023-05-25T06:06:45.290Z,14.60
2023-05-25T06:09:12.722Z,14.70
2023-05-25T06:11:40.099Z,14.70
2023-05-25T06:14:07.293Z,14.80
2023-05-25T06:16:34.457Z,14.80
2023-05-25T06:19:01.702Z,14.90
2023-05-25T06:21:29.034Z,15.00
2023-05-25T06:23:58.845Z,15.00
2023-05-25T06:26:27.194Z,15.10
2023-05-25T06:28:54.382Z,15.10
2023-05-25T06:31:21.505Z,15.20
2023-05-25T06:33:48.619Z,15.30
2023-05-25T06:36:16.092Z,15.30
2023-05-25T06:38:43.210Z,15.40
2023-05-25T06:41:14.974Z,15.40
2023-05-25T06:43:45.120Z,15.50
2023-05-25T06:46:17.870Z,15.50
2023-05-25T06:48:46.019Z,15.60
2023-05-25T06:51:13.454Z,15.60
2023-05-25T06:53:40.666Z,15.70
2023-05-25T06:56:08.165Z,15.70
2023-05-25T06:58:35.271Z,15.80
2023-05-25T07:01:02.858Z,15.90
2023-05-25T07:03:30.260Z,15.90
2023-05-25T07:05:57.393Z,16.00
2023-05-25T07:08:24.427Z,16.00
2023-05-25T07:10:51.570Z,16.10
2023-05-25T07:13:18.616Z,16.10
2023-05-25T07:15:45.984Z,16.20
2023-05-25T07:18:13.441Z,16.40
2023-05-25T07:20:44.435Z,16.40
2023-05-25T07:23:12.514Z,16.50
2023-05-25T07:25:40.746Z,16.60
2023-05-25T07:28:08.827Z,16.60
2023-05-25T07:30:35.932Z,16.70
2023-05-25T07:33:03.055Z,16.70
2023-05-25T07:35:35.264Z,16.80
2023-05-25T07:38:06.996Z,16.80
2023-05-25T07:40:34.174Z,16.90
2023-05-25T07:43:01.435Z,17.00
2023-05-25T07:45:28.538Z,17.10
2023-05-25T07:47:55.736Z,17.10
2023-05-25T07:50:23.951Z,17.20
2023-05-25T07:52:51.172Z,17.20
2023-05-25T07:55:20.068Z,17.30
2023-05-25T07:57:47.149Z,17.30
2023-05-25T08:00:14.604Z,17.40
2023-05-25T08:02:42.030Z,17.50
2023-05-25T08:05:10.145Z,17.50
2023-05-25T08:07:37.709Z,17.60
2023-05-25T08:10:06.259Z,17.70
2023-05-25T08:12:43.054Z,17.70
2023-05-25T08:15:14.574Z,17.80
2023-05-25T08:17:44.543Z,17.80
2023-05-25T08:20:14.324Z,17.90
2023-05-25T08:22:41.476Z,18.00
2023-05-25T08:27:36.793Z,18.20
2023-05-25T08:30:06.176Z,18.20
2023-05-25T08:32:33.685Z,18.30
2023-05-25T08:35:01.996Z,18.30
2023-05-25T08:37:29.430Z,18.40
2023-05-25T08:39:56.517Z,18.50
2023-05-25T08:42:23.945Z,18.60
2023-05-25T08:44:51.223Z,18.60
2023-05-25T08:47:22.481Z,18.70
2023-05-25T08:49:50.980Z,18.80
2023-05-25T08:52:24.160Z,18.80
2023-05-25T08:54:54.537Z,18.90
2023-05-25T08:57:31.936Z,19.00
2023-05-25T09:00:11.103Z,19.00
2023-05-25T09:03:15.961Z,19.10
2023-05-25T09:05:43.952Z,19.20
2023-05-25T09:08:11.738Z,19.20
2023-05-25T09:10:39.438Z,19.30
2023-05-25T09:13:20.491Z,19.40
2023-05-25T09:15:50.811Z,19.40
2023-05-25T09:18:17.911Z,19.50
2023-05-25T09:20:48.109Z,19.60
2023-05-25T09:23:16.383Z,19.60
2023-05-25T09:25:46.181Z,19.80
2023-05-25T09:28:26.185Z,19.80
2023-05-25T09:30:54.721Z,19.90
2023-05-25T09:33:22.215Z,20.00
2023-05-25T09:35:49.631Z,20.00
2023-05-25T09:38:17.308Z,20.10
2023-05-25T09:40:46.022Z,20.20
2023-05-25T09:43:21.941Z,20.20
2023-05-25T09:45:53.943Z,20.30
2023-05-25T09:48:24.429Z,20.40
2023-05-25T09:50:52.106Z,20.50
2023-05-25T09:53:19.405Z,20.50
2023-05-25T09:55:54.315Z,20.50
2023-05-25T09:58:27.557Z,20.60
2023-05-25T10:00:55.414Z,20.70
2023-05-25T10:03:23.096Z,20.70
2023-05-25T10:05:51.920Z,20.80
2023-05-25T10:11:09.833Z,20.80
2023-05-25T10:13:37.488Z,20.80
2023-05-25T10:16:06.188Z,20.80
2023-05-25T10:18:40.294Z,20.80
2023-05-25T10:21:09.625Z,20.90
2023-05-25T10:23:45.022Z,21.00
2023-05-25T10:26:22.695Z,21.10
2023-05-25T10:29:01.432Z,21.20
2023-05-25T10:31:29.772Z,21.30
2023-05-25T10:33:58.271Z,21.40
2023-05-25T10:36:27.121Z,21.50
2023-05-25T10:38:55.426Z,21.50
2023-05-25T10:41:23.078Z,21.50
2023-05-25T10:43:51.397Z,21.60
2023-05-25T10:46:19.260Z,21.70
2023-05-25T10:48:49.027Z,21.80
2023-05-25T10:51:18.897Z,21.90
2023-05-25T10:53:58.473Z,22.00
2023-05-25T10:56:25.609Z,22.00
2023-05-25T10:58:53.698Z,22.10
2023-05-25T11:01:21.291Z,22.10
2023-05-25T11:04:10.710Z,22.10
2023-05-25T11:06:37.890Z,22.20
2023-05-25T11:09:06.600Z,22.30
2023-05-25T11:11:42.416Z,22.40
2023-05-25T11:17:19.051Z,22.50
2023-05-25T11:19:56.382Z,22.50
2023-05-25T11:22:36.320Z,22.50
2023-05-25T11:25:42.194Z,22.60
2023-05-25T11:28:11.945Z,22.60
2023-05-25T11:30:42.194Z,22.70
2023-05-25T11:33:09.452Z,22.70
2023-05-25T11:35:39.891Z,22.70
2023-05-25T11:38:08.409Z,22.60
2023-05-25T11:40:40.259Z,22.70
2023-05-25T11:43:09.635Z,22.70
2023-05-25T11:45:38.168Z,22.80
2023-05-25T11:48:06.121Z,22.80
2023-05-25T11:50:33.995Z,22.70
2023-05-25T11:53:07.168Z,22.70
2023-05-25T11:55:34.399Z,22.90
2023-05-25T11:58:01.513Z,22.90
2023-05-25T12:00:28.727Z,23.00
2023-05-25T12:02:57.632Z,23.20
2023-05-25T12:05:25.182Z,23.30
2023-05-25T12:07:52.636Z,23.30
2023-05-25T12:10:19.881Z,23.30
2023-05-25T12:12:51.989Z,23.40
2023-05-25T12:15:24.199Z,23.40
2023-05-25T12:17:53.644Z,23.50
2023-05-25T12:20:21.894Z,23.60
2023-05-25T12:22:49.384Z,23.70
2023-05-25T12:25:21.982Z,23.70
2023-05-25T12:27:49.209Z,23.80
2023-05-25T12:30:16.378Z,23.70
2023-05-25T12:33:03.860Z,23.70
2023-05-25T12:35:47.744Z,23.80
2023-05-25T12:38:21.889Z,23.80
2023-05-25T12:41:08.498Z,23.90
2023-05-25T12:43:43.724Z,24.00
2023-05-25T12:46:10.890Z,24.10
2023-05-25T12:48:38.064Z,24.20
2023-05-25T12:51:05.715Z,24.30
2023-05-25T12:53:52.198Z,24.40
2023-05-25T12:56:19.357Z,24.50
2023-05-25T12:58:46.404Z,24.50
2023-05-25T13:01:13.529Z,24.50
2023-05-25T13:03:41.378Z,24.60
2023-05-25T13:06:08.677Z,24.70
2023-05-25T13:08:35.691Z,24.80
2023-05-25T13:11:03.851Z,24.90
2023-05-25T13:13:30.944Z,25.00
2023-05-25T13:15:58.414Z,25.10
2023-05-25T13:18:25.540Z,25.10
2023-05-25T13:20:56.121Z,25.30
2023-05-25T13:23:24.084Z,25.30
2023-05-25T13:25:51.671Z,25.50
2023-05-25T13:28:18.702Z,25.50
2023-05-25T13:30:45.922Z,25.60
2023-05-25T13:33:13.118Z,25.70
2023-05-25T13:35:58.023Z,25.80
2023-05-25T13:38:25.469Z,25.90
2023-05-25T13:40:52.714Z,26.00
2023-05-25T13:43:19.762Z,26.10
2023-05-25T13:45:47.843Z,26.20
2023-05-25T13:48:14.969Z,26.30
2023-05-25T13:50:42.551Z,26.30
2023-05-25T13:53:09.725Z,26.30
2023-05-25T13:55:38.698Z,26.40
2023-05-25T13:58:06.737Z,26.40
2023-05-25T14:00:34.108Z,26.40
2023-05-25T14:03:01.400Z,26.50
2023-05-25T14:05:30.221Z,26.60
2023-05-25T14:07:58.385Z,26.80
2023-05-25T14:10:25.440Z,26.70
2023-05-25T14:12:52.539Z,26.70
2023-05-25T14:15:19.692Z,26.80
2023-05-25T14:17:47.006Z,26.90
2023-05-25T14:20:20.884Z,26.90
2023-05-25T14:22:48.100Z,27.00
2023-05-25T14:25:15.163Z,27.00
2023-05-25T14:27:42.561Z,27.10
2023-05-25T14:30:10.407Z,27.10
2023-05-25T14:32:38.581Z,27.00
2023-05-25T14:35:06.362Z,27.00
2023-05-25T14:37:33.441Z,27.00
2023-05-25T14:40:00.884Z,27.10
2023-05-25T14:42:30.188Z,27.20
2023-05-25T14:44:57.284Z,27.20
2023-05-25T14:47:24.364Z,27.10
2023-05-25T14:49:51.548Z,27.10
2023-05-25T14:52:18.615Z,27.20
2023-05-25T14:54:45.803Z,27.20
2023-05-25T14:57:12.872Z,27.10
2023-05-25T14:59:40.093Z,27.10
2023-05-25T15:02:09.748Z,27.10
2023-05-25T15:04:36.856Z,27.10
2023-05-25T15:07:06.514Z,27.10
2023-05-25T15:09:33.964Z,27.10
2023-05-25T15:12:02.158Z,27.10
2023-05-25T15:14:29.212Z,27.00
2023-05-25T15:16:56.273Z,27.00
2023-05-25T15:19:23.450Z,26.90
2023-05-25T15:21:50.615Z,27.00
2023-05-25T15:24:17.788Z,27.00
2023-05-25T15:26:45.100Z,27.10
2023-05-25T15:29:12.207Z,27.00
2023-05-25T15:31:39.304Z,27.00
2023-05-25T15:34:06.394Z,27.00
2023-05-25T15:36:33.486Z,26.90
2023-05-25T15:39:00.709Z,26.90
2023-05-25T15:41:27.790Z,26.90
2023-05-25T15:44:01.125Z,26.90
2023-05-25T15:46:28.932Z,26.90
2023-05-25T15:48:58.822Z,26.90
2023-05-25T15:51:25.899Z,26.90
2023-05-25T15:53:54.754Z,26.80
2023-05-25T15:56:22.867Z,26.70
2023-05-25T15:58:49.890Z,26.70
2023-05-25T16:01:16.982Z,26.60
2023-05-25T16:03:44.882Z,26.60
2023-05-25T16:06:12.127Z,26.50
2023-05-25T16:08:39.269Z,26.40
2023-05-25T16:11:06.405Z,26.30
2023-05-25T16:13:33.431Z,26.30
2023-05-25T16:16:00.757Z,26.20
2023-05-25T16:18:27.856Z,26.10
2023-05-25T16:20:58.278Z,26.00
2023-05-25T16:23:25.443Z,26.00
2023-05-25T16:25:52.664Z,25.90
2023-05-25T16:28:19.788Z,25.70
2023-05-25T16:30:47.322Z,25.60
2023-05-25T16:33:14.561Z,25.40
2023-05-25T16:35:41.669Z,25.30
2023-05-25T16:38:08.757Z,25.20
2023-05-25T16:40:36.266Z,25.00
2023-05-25T16:43:03.287Z,24.90
2023-05-25T16:45:30.445Z,24.70
2023-05-25T16:47:57.526Z,24.50
2023-05-25T16:50:24.734Z,24.40
2023-05-25T16:52:51.799Z,24.30
2023-05-25T16:55:19.220Z,24.10
2023-05-25T16:57:46.266Z,24.00
2023-05-25T17:00:14.189Z,23.90
2023-05-25T17:02:41.345Z,23.80
2023-05-25T17:05:09.281Z,23.70
2023-05-25T17:07:37.692Z,23.50
2023-05-25T17:10:06.963Z,23.40
2023-05-25T17:12:34.511Z,23.30
2023-05-25T17:15:01.743Z,23.30
2023-05-25T17:17:28.931Z,23.20
2023-05-25T17:19:56.183Z,23.10
2023-05-25T17:22:23.582Z,23.00
2023-05-25T17:24:50.614Z,23.00
2023-05-25T17:29:45.088Z,22.80
2023-05-25T17:32:12.187Z,22.70
2023-05-25T17:34:39.277Z,22.70
2023-05-25T17:37:06.423Z,22.60
2023-05-25T17:39:34.134Z,22.50
2023-05-25T17:42:01.545Z,22.40
2023-05-25T17:44:28.729Z,22.30
2023-05-25T17:46:55.898Z,22.20
2023-05-25T17:49:23.003Z,22.10
2023-05-25T17:51:50.196Z,22.10
2023-05-25T17:54:20.212Z,22.00
2023-05-25T17:56:47.772Z,22.00
2023-05-25T17:59:15.190Z,21.90
2023-05-25T18:01:43.019Z,21.90
2023-05-25T18:04:10.735Z,21.80
2023-05-25T18:06:38.380Z,21.70
2023-05-25T18:09:05.854Z,21.70
2023-05-25T18:11:34.014Z,21.70
2023-05-25T18:14:01.962Z,21.60
2023-05-25T18:16:30.149Z,21.50
2023-05-25T18:18:58.161Z,21.50
2023-05-25T18:21:26.148Z,21.40
2023-05-25T18:23:54.202Z,21.30
2023-05-25T18:26:22.431Z,21.20
2023-05-25T18:28:50.414Z,21.10
2023-05-25T18:31:17.807Z,21.10
2023-05-25T18:33:44.875Z,20.90
2023-05-25T18:36:12.070Z,20.80
2023-05-25T18:38:39.153Z,20.80
2023-05-25T18:41:06.323Z,20.70
2023-05-25T18:43:33.453Z,20.60
2023-05-25T18:46:00.599Z,20.50
2023-05-25T18:48:27.825Z,20.40
2023-05-25T18:50:54.982Z,20.40
2023-05-25T18:53:22.283Z,20.30
2023-05-25T18:55:49.545Z,20.30
2023-05-25T18:58:16.684Z,20.20
2023-05-25T19:00:43.798Z,20.10
2023-05-25T19:03:11.177Z,20.00
2023-05-25T19:05:38.395Z,19.90
2023-05-25T19:08:05.484Z,19.80
2023-05-25T19:10:32.651Z,19.80
2023-05-25T19:12:59.791Z,19.70
2023-05-25T19:15:26.966Z,19.60
2023-05-25T19:17:54.262Z,19.60
2023-05-25T19:20:21.591Z,19.50
2023-05-25T19:22:48.843Z,19.40
2023-05-25T19:25:16.163Z,19.40
2023-05-25T19:27:43.415Z,19.40
2023-05-25T19:30:11.391Z,19.30
2023-05-25T19:32:38.914Z,19.30
2023-05-25T19:35:06.718Z,19.20
2023-05-25T19:37:35.081Z,19.10
2023-05-25T19:40:02.441Z,19.10
2023-05-25T19:42:30.004Z,19.00
2023-05-25T19:44:57.534Z,19.00
2023-05-25T19:47:24.998Z,18.90
2023-05-25T19:49:52.453Z,18.90
2023-05-25T19:52:19.812Z,18.80
2023-05-25T19:54:47.230Z,18.80
2023-05-25T19:57:14.749Z,18.70
2023-05-25T19:59:42.202Z,18.70
2023-05-25T20:02:09.619Z,18.60
2023-05-25T20:04:41.026Z,18.60
2023-05-25T20:07:08.837Z,18.50
2023-05-25T20:09:38.637Z,18.50
2023-05-25T20:12:06.737Z,18.40
2023-05-25T20:14:34.163Z,18.40
2023-05-25T20:17:01.520Z,18.30
2023-05-25T20:19:28.815Z,18.30
2023-05-25T20:21:57.758Z,18.20
2023-05-25T20:24:24.900Z,18.20
2023-05-25T20:26:56.736Z,18.10
2023-05-25T20:29:24.115Z,18.10
2023-05-25T20:31:52.086Z,18.00
2023-05-25T20:34:19.267Z,17.90
2023-05-25T20:36:46.527Z,17.90
2023-05-25T20:39:13.650Z,17.90
2023-05-25T20:41:40.932Z,17.90
2023-05-25T20:44:08.948Z,17.80
2023-05-25T20:46:36.382Z,17.80
2023-05-25T20:49:03.621Z,17.70
2023-05-25T20:51:31.218Z,17.70
2023-05-25T20:53:58.312Z,17.60
2023-05-25T20:56:28.217Z,17.60
2023-05-25T20:58:55.457Z,17.60
2023-05-25T21:01:22.619Z,17.50
2023-05-25T21:03:49.770Z,17.50
2023-05-25T21:06:17.054Z,17.50
2023-05-25T21:08:44.132Z,17.40
2023-05-25T21:11:11.237Z,17.40
2023-05-25T21:13:39.749Z,17.30
2023-05-25T21:16:07.350Z,17.30
2023-05-25T21:18:34.449Z,17.20
2023-05-25T21:21:02.162Z,17.20
2023-05-25T21:23:29.281Z,17.10
2023-05-25T21:25:56.549Z,17.10
2023-05-25T21:28:24.156Z,17.00
2023-05-25T21:30:51.344Z,17.00
2023-05-25T21:33:18.383Z,16.90
2023-05-25T21:35:45.679Z,16.90
2023-05-25T21:38:13.026Z,16.80
2023-05-25T21:40:40.070Z,16.80
2023-05-25T21:43:09.024Z,16.70
2023-05-25T21:45:36.110Z,16.80
2023-05-25T21:48:04.787Z,16.70
2023-05-25T21:50:31.972Z,16.70
2023-05-25T21:52:59.080Z,16.70
2023-05-25T21:55:26.137Z,16.60
2023-05-25T21:57:53.163Z,16.60
2023-05-25T22:00:20.530Z,16.60
2023-05-25T22:02:48.714Z,16.60
2023-05-25T22:05:15.961Z,16.50
2023-05-25T22:07:43.112Z,16.50
2023-05-25T22:10:10.446Z,16.50
2023-05-25T22:12:37.543Z,16.40
2023-05-25T22:15:06.608Z,16.40
2023-05-25T22:17:33.876Z,16.40
2023-05-25T22:20:07.992Z,16.40
2023-05-25T22:22:37.329Z,16.30
2023-05-25T22:25:05.094Z,16.30
2023-05-25T22:27:33.037Z,16.20
2023-05-25T22:30:00.402Z,16.20
2023-05-25T22:32:27.884Z,16.20
2023-05-25T22:34:54.985Z,16.10
2023-05-25T22:37:22.028Z,16.10
2023-05-25T22:39:49.649Z,16.10
2023-05-25T22:42:16.696Z,16.00
2023-05-25T22:44:43.726Z,16.00
2023-05-25T22:47:10.896Z,15.90
2023-05-25T22:49:42.969Z,15.90
2023-05-25T22:52:12.225Z,15.90
2023-05-25T22:54:39.971Z,15.80
2023-05-25T22:57:09.526Z,15.80
2023-05-25T22:59:36.782Z,15.70
2023-05-25T23:02:04.194Z,15.70
2023-05-25T23:04:31.670Z,15.70
2023-05-25T23:06:58.689Z,15.60
2023-05-25T23:09:25.768Z,15.60
2023-05-25T23:11:52.978Z,15.60
2023-05-25T23:14:20.841Z,15.60
2023-05-25T23:16:50.514Z,15.60
2023-05-25T23:19:18.049Z,15.50
2023-05-25T23:21:45.277Z,15.40
2023-05-25T23:24:12.302Z,15.40
2023-05-25T23:26:39.326Z,15.40
2023-05-25T23:29:06.488Z,15.30
2023-05-25T23:31:33.811Z,15.30
2023-05-25T23:34:01.202Z,15.30
2023-05-25T23:36:28.607Z,15.30
2023-05-25T23:38:55.988Z,15.30
2023-05-25T23:41:23.301Z,15.20
2023-05-25T23:43:50.669Z,15.20
2023-05-25T23:46:18.117Z,15.20
2023-05-25T23:48:46.357Z,15.10
2023-05-25T23:51:14.025Z,15.10
2023-05-25T23:53:41.082Z,15.10
2023-05-25T23:56:08.247Z,15.10
2023-05-25T23:58:35.668Z,15.00
